Time;durP1;ratioP1;P1;durP2;ratioP2;P2;SDS_P1;SDS_P2;PMS_P1;PMS_P2;Temp;Humidity;BMP_temperature;BMP_pressure;BME280_temperature;BME280_humidity;BME280_pressure;Samples;Min_cycle;Max_cycle;Signal;HPM_P1;HPM_P2
2021/07/07 00:06:34;;;;;;;0.93;0.30;;;16.20;99.90;;;;;;20479050;28;20122;-49
2021/07/07 00:16:35;;;;;;;1.00;0.40;;;16.30;99.90;;;;;;20490942;28;20093;-50
2021/07/07 00:26:39;;;;;;;2.25;0.85;;;16.30;99.90;;;;;;20473542;28;20141;-50
2021/07/07 00:36:40;;;;;;;2.38;0.68;;;16.20;99.90;;;;;;20499107;28;20073;-50
2021/07/07 00:46:45;;;;;;;3.15;0.50;;;16.00;99.90;;;;;;20495352;28;20182;-50
2021/07/07 00:56:49;;;;;;;1.52;0.32;;;16.00;99.90;;;;;;20491993;28;20363;-49
2021/07/07 01:06:51;;;;;;;3.35;0.63;;;16.00;99.90;;;;;;20508698;28;20542;-50
2021/07/07 01:16:54;;;;;;;2.85;0.85;;;15.80;99.90;;;;;;20485609;28;20593;-49
2021/07/07 01:26:55;;;;;;;1.48;0.50;;;16.00;99.90;;;;;;20477289;28;20050;-50
2021/07/07 01:36:56;;;;;;;1.40;0.40;;;15.80;99.90;;;;;;20491436;28;20039;-50
2021/07/07 01:46:58;;;;;;;3.67;0.73;;;15.90;99.90;;;;;;20493131;28;20043;-49
2021/07/07 01:56:59;;;;;;;1.85;0.60;;;15.70;99.90;;;;;;20487701;28;20082;-50
2021/07/07 02:07:01;;;;;;;3.83;0.82;;;15.90;99.90;;;;;;20493364;28;20039;-50
2021/07/07 02:17:02;;;;;;;1.95;0.70;;;15.90;99.90;;;;;;20485355;28;20047;-50
2021/07/07 02:27:03;;;;;;;1.75;0.57;;;16.00;99.90;;;;;;20485894;28;20522;-49
2021/07/07 02:37:05;;;;;;;2.05;0.57;;;16.10;99.90;;;;;;20484481;28;20093;-50
2021/07/07 02:47:06;;;;;;;4.32;0.60;;;16.20;99.90;;;;;;20483777;28;20071;-49
2021/07/07 02:57:07;;;;;;;0.85;0.40;;;16.20;99.90;;;;;;20490288;28;20050;-49
2021/07/07 03:07:08;;;;;;;2.22;0.60;;;16.20;99.90;;;;;;20491981;28;20070;-50
2021/07/07 03:17:12;;;;;;;1.67;0.80;;;16.10;99.90;;;;;;20479857;28;20048;-50
2021/07/07 03:27:13;;;;;;;0.90;0.40;;;16.10;99.90;;;;;;20489808;28;20039;-50
2021/07/07 03:37:15;;;;;;;3.50;1.88;;;16.10;99.90;;;;;;20480093;28;20129;-49
2021/07/07 03:47:16;;;;;;;1.40;0.50;;;16.00;99.90;;;;;;20482971;28;20129;-50
2021/07/07 03:57:18;;;;;;;1.38;0.50;;;15.90;99.90;;;;;;20474752;28;20538;-50
2021/07/07 04:07:19;;;;;;;1.55;0.47;;;15.90;99.90;;;;;;20495038;28;20042;-50
2021/07/07 04:17:20;;;;;;;1.55;0.60;;;15.90;99.90;;;;;;20490166;28;20510;-50
2021/07/07 04:27:22;;;;;;;2.60;1.30;;;15.90;99.90;;;;;;20499757;28;20612;-50
2021/07/07 04:37:23;;;;;;;3.92;1.00;;;15.80;99.90;;;;;;20517198;28;20054;-50
2021/07/07 04:47:24;;;;;;;1.75;0.63;;;15.90;99.90;;;;;;20490933;28;20043;-49
2021/07/07 04:57:25;;;;;;;1.95;0.95;;;16.00;99.90;;;;;;20479616;28;20515;-50
2021/07/07 05:07:27;;;;;;;2.58;1.25;;;16.00;99.90;;;;;;20489241;28;20057;-49
2021/07/07 05:17:28;;;;;;;2.95;1.00;;;16.20;99.90;;;;;;20489747;28;20047;-49
2021/07/07 05:27:29;;;;;;;1.58;0.70;;;16.40;99.90;;;;;;20519922;28;20058;-49
2021/07/07 05:37:33;;;;;;;2.05;0.82;;;16.70;99.90;;;;;;20482455;28;20045;-49
2021/07/07 05:47:35;;;;;;;2.13;0.77;;;16.90;99.90;;;;;;20501483;28;20581;-48
2021/07/07 05:57:39;;;;;;;1.95;0.88;;;17.00;99.90;;;;;;20509238;28;20074;-50
2021/07/07 06:07:41;;;;;;;2.15;0.98;;;17.10;99.90;;;;;;20508476;28;20086;-50
2021/07/07 06:17:43;;;;;;;1.52;0.60;;;17.20;99.90;;;;;;20502171;28;20503;-49
2021/07/07 06:27:44;;;;;;;2.38;1.10;;;17.50;99.90;;;;;;20503996;28;20133;-49
2021/07/07 06:37:46;;;;;;;2.22;0.80;;;17.70;99.90;;;;;;20503459;28;20495;-50
2021/07/07 06:47:48;;;;;;;2.17;1.27;;;17.90;99.90;;;;;;20503239;28;20047;-50
2021/07/07 06:57:49;;;;;;;4.20;1.48;;;18.00;99.90;;;;;;20496380;28;20051;-50
2021/07/07 07:07:50;;;;;;;1.98;0.80;;;17.70;99.90;;;;;;20477058;28;20053;-49
2021/07/07 07:17:53;;;;;;;3.13;0.70;;;18.00;99.90;;;;;;20476504;28;20059;-50
2021/07/07 07:27:54;;;;;;;2.63;1.25;;;18.20;99.90;;;;;;20481956;28;20039;-50
2021/07/07 07:38:07;;;;;;;2.22;0.77;;;18.30;99.90;;;;;;20500020;28;20569;-50
2021/07/07 07:48:09;;;;;;;3.50;0.77;;;18.60;99.90;;;;;;20502501;28;20491;-50
2021/07/07 07:58:10;;;;;;;2.50;1.20;;;18.70;99.90;;;;;;20497370;28;20054;-50
2021/07/07 08:08:12;;;;;;;3.72;1.02;;;19.00;99.90;;;;;;20512702;28;20530;-51
2021/07/07 08:18:13;;;;;;;3.17;1.20;;;19.30;99.90;;;;;;20493502;28;20422;-48
2021/07/07 08:28:14;;;;;;;2.33;1.20;;;19.70;99.90;;;;;;20542549;28;20555;-48
2021/07/07 08:38:16;;;;;;;3.22;1.75;;;19.70;99.90;;;;;;20508179;28;20054;-48
2021/07/07 08:48:17;;;;;;;3.20;1.80;;;19.40;99.90;;;;;;20534299;28;20101;-48
2021/07/07 08:58:18;;;;;;;3.20;1.30;;;19.40;99.90;;;;;;20511218;28;20495;-47
2021/07/07 09:08:31;;;;;;;4.90;1.55;;;19.50;99.90;;;;;;20524681;28;20617;-48
2021/07/07 09:18:33;;;;;;;1.92;1.10;;;19.80;99.90;;;;;;20535547;28;20510;-47
2021/07/07 09:28:37;;;;;;;1.73;0.80;;;20.00;99.90;;;;;;20544547;28;20145;-48
2021/07/07 09:38:41;;;;;;;2.55;1.08;;;20.30;99.90;;;;;;20520101;28;20035;-48
2021/07/07 09:48:43;;;;;;;1.98;1.00;;;20.70;99.90;;;;;;20530887;28;20471;-48
2021/07/07 09:58:44;;;;;;;2.15;0.90;;;20.60;99.90;;;;;;20501293;28;20649;-48
2021/07/07 10:08:46;;;;;;;2.67;0.90;;;20.50;99.90;;;;;;20492671;28;20487;-48
2021/07/07 10:18:47;;;;;;;4.75;0.80;;;20.40;99.90;;;;;;20499649;28;20568;-48
2021/07/07 10:28:49;;;;;;;1.80;0.93;;;20.20;99.90;;;;;;20488693;28;20590;-48
2021/07/07 10:38:59;;;;;;;5.25;1.45;;;19.90;99.90;;;;;;20531643;28;20043;-48
2021/07/07 10:49:20;;;;;;;2.97;1.23;;;19.80;99.90;;;;;;20540067;28;20146;-48
2021/07/07 10:59:44;;;;;;;2.67;1.10;;;20.50;99.90;;;;;;20510511;28;20132;-48
2021/07/07 11:09:46;;;;;;;1.45;0.68;;;21.40;99.90;;;;;;20508535;28;20053;-48
2021/07/07 11:19:49;;;;;;;1.70;0.95;;;21.40;99.90;;;;;;20527037;28;20558;-48
2021/07/07 11:29:51;;;;;;;2.97;0.90;;;21.30;99.90;;;;;;20524024;28;20047;-48
2021/07/07 11:40:12;;;;;;;3.90;1.10;;;20.70;99.90;;;;;;20518341;28;20047;-48
2021/07/07 11:50:13;;;;;;;1.50;0.77;;;20.40;99.90;;;;;;20516915;28;20606;-48
2021/07/07 12:00:15;;;;;;;2.47;1.00;;;20.50;99.90;;;;;;20477312;28;20591;-47
2021/07/07 12:10:28;;;;;;;2.30;1.30;;;21.10;99.90;;;;;;20350943;28;20778;-48
2021/07/07 12:20:33;;;;;;;5.20;1.33;;;21.30;99.90;;;;;;20492232;28;20057;-48
2021/07/07 12:30:36;;;;;;;4.63;1.40;;;21.70;99.90;;;;;;20500670;28;20463;-48
2021/07/07 12:40:37;;;;;;;2.58;1.35;;;21.70;99.90;;;;;;20512300;28;20542;-48
2021/07/07 12:50:41;;;;;;;4.38;1.42;;;21.80;99.90;;;;;;20516173;28;20090;-48
2021/07/07 13:00:44;;;;;;;2.83;1.42;;;21.40;99.90;;;;;;20496057;28;20734;-48
2021/07/07 13:10:49;;;;;;;2.00;0.95;;;21.50;99.90;;;;;;20484929;28;20330;-48
2021/07/07 13:21:06;;;;;;;1.60;0.82;;;21.30;99.90;;;;;;20491490;28;20499;-48
2021/07/07 13:31:13;;;;;;;2.25;1.05;;;21.50;99.90;;;;;;20503044;28;20186;-48
2021/07/07 13:41:14;;;;;;;1.90;1.00;;;21.70;99.90;;;;;;20489500;28;20054;-48
2021/07/07 13:51:15;;;;;;;1.70;0.90;;;22.50;99.90;;;;;;20518676;28;20973;-48
2021/07/07 14:01:16;;;;;;;1.40;0.68;;;22.30;99.90;;;;;;20495765;28;20677;-48
2021/07/07 14:11:17;;;;;;;1.67;0.77;;;22.90;99.90;;;;;;20500926;28;20548;-49
2021/07/07 14:21:19;;;;;;;2.35;0.90;;;22.60;99.90;;;;;;20484556;28;20054;-48
2021/07/07 14:31:21;;;;;;;2.35;1.10;;;22.00;99.90;;;;;;20503019;28;20526;-48
2021/07/07 14:41:28;;;;;;;1.17;0.68;;;22.00;99.90;;;;;;20480389;28;20055;-48
2021/07/07 14:51:29;;;;;;;;;;;22.10;99.90;;;;;;20482546;28;20278;-48
2021/07/07 15:01:32;;;;;;;1.83;0.98;;;22.10;99.90;;;;;;20477570;28;20012;-48
2021/07/07 15:11:33;;;;;;;1.73;0.80;;;22.20;99.90;;;;;;20484553;28;20487;-50
2021/07/07 15:21:35;;;;;;;3.05;0.80;;;22.50;99.90;;;;;;20480978;28;20498;-50
2021/07/07 15:31:36;;;;;;;2.08;0.68;;;22.70;99.90;;;;;;20479066;28;20044;-48
2021/07/07 15:41:37;;;;;;;1.58;0.70;;;22.70;99.90;;;;;;20473443;28;20559;-50
2021/07/07 15:51:38;;;;;;;2.13;1.02;;;22.90;99.90;;;;;;20487096;28;20480;-49
2021/07/07 16:01:40;;;;;;;1.52;0.82;;;23.00;99.90;;;;;;20494190;28;20082;-48
2021/07/07 16:11:42;;;;;;;2.20;0.90;;;22.80;99.90;;;;;;20499102;28;20047;-48
2021/07/07 16:21:43;;;;;;;1.80;0.65;;;22.80;99.90;;;;;;20502598;28;20165;-49
2021/07/07 16:31:44;;;;;;;1.77;0.90;;;22.60;99.90;;;;;;20503475;28;20510;-50
2021/07/07 16:41:46;;;;;;;2.25;0.80;;;22.30;99.90;;;;;;20514061;28;20051;-48
2021/07/07 16:51:47;;;;;;;2.55;0.82;;;22.20;99.90;;;;;;20504173;28;20090;-48
2021/07/07 17:01:48;;;;;;;5.22;1.20;;;21.80;99.90;;;;;;20484346;28;20174;-48
2021/07/07 17:11:51;;;;;;;1.45;0.75;;;21.70;99.90;;;;;;20478090;28;20131;-48
2021/07/07 17:21:52;;;;;;;1.55;0.95;;;21.20;99.90;;;;;;20491566;28;20055;-48
2021/07/07 17:31:53;;;;;;;2.22;0.75;;;20.80;99.90;;;;;;20490728;28;20487;-48
2021/07/07 17:41:55;;;;;;;2.67;1.20;;;20.60;99.90;;;;;;20495475;28;20498;-48
2021/07/07 17:51:57;;;;;;;2.45;0.68;;;20.50;99.90;;;;;;20514093;28;20728;-49
2021/07/07 18:01:58;;;;;;;1.65;0.50;;;20.20;99.90;;;;;;20501689;28;20118;-48
2021/07/07 18:11:59;;;;;;;1.48;0.70;;;19.90;99.90;;;;;;20505318;28;20455;-48
2021/07/07 18:22:01;;;;;;;1.50;0.55;;;19.80;99.90;;;;;;20491343;28;20057;-49
2021/07/07 18:32:03;;;;;;;1.67;0.95;;;19.60;99.90;;;;;;20485225;28;20042;-49
2021/07/07 18:42:04;;;;;;;4.10;0.80;;;19.40;99.90;;;;;;20481938;28;20054;-48
2021/07/07 18:52:06;;;;;;;2.33;0.85;;;19.40;99.90;;;;;;20467312;28;20061;-48
2021/07/07 19:02:07;;;;;;;2.63;0.80;;;19.30;99.90;;;;;;20471967;28;20510;-48
2021/07/07 19:12:09;;;;;;;2.08;0.70;;;19.10;99.90;;;;;;20473859;28;20060;-48
2021/07/07 19:22:11;;;;;;;3.05;0.50;;;18.90;99.90;;;;;;20482359;28;20083;-48
2021/07/07 19:32:12;;;;;;;1.10;0.60;;;18.80;99.90;;;;;;20485970;28;20046;-48
2021/07/07 19:42:13;;;;;;;2.42;0.77;;;18.60;99.90;;;;;;20489119;28;20525;-48
2021/07/07 19:52:14;;;;;;;4.93;1.17;;;18.60;99.90;;;;;;20498015;28;20538;-48
2021/07/07 20:02:15;;;;;;;2.10;1.40;;;18.40;99.90;;;;;;20480260;28;20494;-48
2021/07/07 20:12:17;;;;;;;2.97;0.70;;;18.20;99.90;;;;;;20488344;28;20039;-48
2021/07/07 20:22:18;;;;;;;1.98;1.00;;;18.00;99.90;;;;;;20487875;28;20111;-48
2021/07/07 20:32:19;;;;;;;2.88;0.65;;;17.80;99.90;;;;;;20485729;28;20035;-47
2021/07/07 20:42:21;;;;;;;1.55;0.68;;;17.50;99.90;;;;;;20492627;28;20042;-48
2021/07/07 20:52:22;;;;;;;2.05;0.77;;;17.30;99.90;;;;;;20487655;28;20629;-48
2021/07/07 21:02:24;;;;;;;3.75;0.90;;;17.10;99.90;;;;;;20486018;28;20062;-48
2021/07/07 21:12:25;;;;;;;2.80;1.20;;;17.00;99.90;;;;;;20482283;28;20041;-48
2021/07/07 21:22:26;;;;;;;3.03;0.82;;;16.70;99.90;;;;;;20486416;28;20051;-48
2021/07/07 21:32:27;;;;;;;3.90;0.70;;;16.50;99.90;;;;;;20480235;28;20367;-47
2021/07/07 21:42:29;;;;;;;2.47;0.80;;;16.40;99.90;;;;;;20488921;28;20043;-48
2021/07/07 21:52:31;;;;;;;2.30;1.08;;;16.40;99.90;;;;;;20479022;28;20145;-48
2021/07/07 22:02:32;;;;;;;4.30;1.48;;;16.30;99.90;;;;;;20478944;28;20494;-50
2021/07/07 22:12:34;;;;;;;5.93;1.60;;;16.30;99.90;;;;;;20480679;28;20126;-50
2021/07/07 22:22:36;;;;;;;3.25;1.23;;;16.10;99.90;;;;;;20488888;28;20185;-50
2021/07/07 22:32:38;;;;;;;2.50;1.08;;;16.00;99.90;;;;;;20491466;28;20044;-50
2021/07/07 22:42:39;;;;;;;4.00;1.17;;;15.80;99.90;;;;;;20487075;28;20045;-50
2021/07/07 22:52:42;;;;;;;4.18;1.45;;;15.70;99.90;;;;;;20481098;28;20042;-50
2021/07/07 23:02:43;;;;;;;2.45;1.10;;;15.70;99.90;;;;;;20477948;28;20510;-50
2021/07/07 23:12:45;;;;;;;3.03;1.85;;;15.60;99.90;;;;;;20483391;28;20916;-50
2021/07/07 23:22:47;;;;;;;4.50;1.83;;;15.60;99.90;;;;;;20488526;28;20057;-50
2021/07/07 23:32:49;;;;;;;2.28;0.90;;;15.40;99.90;;;;;;20485636;28;20693;-50
2021/07/07 23:42:51;;;;;;;2.90;1.00;;;15.30;99.90;;;;;;20486607;28;20461;-50
2021/07/07 23:52:53;;;;;;;2.60;1.30;;;15.30;99.90;;;;;;20495148;28;20050;-50
